createdAt,value
2016-11-24T00:00:26.507Z,0
2016-11-24T00:01:11.613Z,0
2016-11-24T00:02:11.628Z,0
2016-11-24T00:03:11.704Z,0
2016-11-24T00:04:11.671Z,0
2016-11-24T00:05:11.708Z,0
2016-11-24T00:06:11.761Z,0
2016-11-24T00:07:11.727Z,0
2016-11-24T00:08:11.748Z,0
2016-11-24T00:09:11.760Z,0
2016-11-24T00:10:11.782Z,0
2016-11-24T00:11:41.616Z,0
2016-11-24T00:12:26.728Z,0
2016-11-24T00:13:11.834Z,0
2016-11-24T00:14:11.853Z,0
2016-11-24T00:15:26.785Z,0
2016-11-24T00:16:11.924Z,0
2016-11-24T00:17:11.917Z,0
2016-11-24T00:18:11.924Z,0
2016-11-24T00:19:11.946Z,0
2016-11-24T00:20:26.899Z,0
2016-11-24T00:21:11.981Z,0
2016-11-24T00:22:12.047Z,0
2016-11-24T00:23:12.018Z,0
2016-11-24T00:24:12.040Z,0
2016-11-24T00:25:12.054Z,0
2016-11-24T00:26:12.078Z,0
2016-11-24T00:27:27.003Z,0
2016-11-24T00:28:12.114Z,0
2016-11-24T00:29:27.049Z,0
2016-11-24T00:30:27.064Z,0
2016-11-24T00:31:12.170Z,0
2016-11-24T00:32:12.182Z,0
2016-11-24T00:33:12.211Z,0
2016-11-24T00:34:12.224Z,0
2016-11-24T00:35:12.243Z,0
2016-11-24T00:36:27.171Z,0
2016-11-24T00:37:12.276Z,0
2016-11-24T00:38:12.301Z,0
2016-11-24T00:39:12.316Z,0
2016-11-24T00:40:12.367Z,0
2016-11-24T00:41:12.352Z,0
2016-11-24T00:42:12.374Z,0
2016-11-24T00:43:27.306Z,0
2016-11-24T00:45:12.431Z,0
2016-11-24T00:46:12.448Z,0
2016-11-24T00:47:12.466Z,0
2016-11-24T00:48:12.489Z,0
2016-11-24T00:49:27.410Z,0
2016-11-24T00:50:27.433Z,0
2016-11-24T00:51:12.544Z,0
2016-11-24T00:52:12.565Z,0
2016-11-24T00:53:12.608Z,0
2016-11-24T00:54:12.631Z,0
2016-11-24T00:55:27.524Z,0
2016-11-24T00:56:12.640Z,0
2016-11-24T00:57:12.911Z,0
2016-11-24T00:58:27.590Z,0
2016-11-24T00:59:12.687Z,0
2016-11-24T01:00:12.713Z,0
2016-11-24T01:01:12.735Z,0
2016-11-24T01:02:12.753Z,0
2016-11-24T01:03:12.775Z,0
2016-11-24T01:04:12.839Z,0
2016-11-24T01:05:12.808Z,0
2016-11-24T01:06:12.817Z,0
2016-11-24T01:07:12.846Z,0
2016-11-24T01:08:12.868Z,0
2016-11-24T01:09:12.884Z,0
2016-11-24T01:10:12.899Z,0
2016-11-24T01:11:12.921Z,0
2016-11-24T01:12:12.940Z,0
2016-11-24T01:13:12.951Z,0
2016-11-24T01:14:27.918Z,0
2016-11-24T01:15:12.989Z,0
2016-11-24T01:16:27.924Z,0
2016-11-24T01:17:13.028Z,0
2016-11-24T01:18:13.051Z,0
2016-11-24T01:19:13.071Z,0
2016-11-24T01:20:13.085Z,0
2016-11-24T01:21:13.113Z,0
2016-11-24T01:22:13.127Z,0
2016-11-24T01:23:13.145Z,0
2016-11-24T01:24:13.165Z,0
2016-11-24T01:25:13.184Z,0
2016-11-24T01:26:28.154Z,0
2016-11-24T01:27:13.215Z,0
2016-11-24T01:28:13.243Z,0
2016-11-24T01:29:13.259Z,0
2016-11-24T01:30:28.186Z,0
2016-11-24T01:31:13.296Z,0
2016-11-24T01:32:13.309Z,0
2016-11-24T01:33:13.642Z,0
2016-11-24T01:34:13.354Z,0
2016-11-24T01:35:13.367Z,0
2016-11-24T01:36:28.302Z,0
2016-11-24T01:37:13.408Z,0
2016-11-24T01:38:13.429Z,0
2016-11-24T01:40:13.459Z,0
2016-11-24T01:41:13.484Z,0
2016-11-24T01:42:13.507Z,0
2016-11-24T01:43:13.518Z,0
2016-11-24T01:46:28.486Z,0
2016-11-24T01:47:13.589Z,0
2016-11-24T01:48:13.644Z,0
2016-11-24T01:49:13.626Z,0
2016-11-24T01:50:28.566Z,0
2016-11-24T01:51:28.580Z,0
2016-11-24T01:52:13.724Z,0
2016-11-24T01:53:28.611Z,0
2016-11-24T01:54:13.729Z,0
2016-11-24T01:55:13.747Z,0
2016-11-24T01:56:13.774Z,0
2016-11-24T01:57:13.786Z,0
2016-11-24T01:58:13.816Z,0
2016-11-24T01:59:13.816Z,0
2016-11-24T02:00:13.835Z,0
2016-11-24T02:01:13.860Z,0
2016-11-24T02:02:28.785Z,0
2016-11-24T02:03:28.810Z,0
2016-11-24T02:04:28.823Z,0
2016-11-24T02:05:13.927Z,0
2016-11-24T02:06:13.948Z,0
2016-11-24T02:07:28.877Z,0
2016-11-24T02:08:28.895Z,0
2016-11-24T02:09:28.909Z,0
2016-11-24T02:10:14.027Z,0
2016-11-24T02:11:14.051Z,0
2016-11-24T02:12:14.058Z,0
2016-11-24T02:13:14.130Z,0
2016-11-24T02:14:14.098Z,0
2016-11-24T02:15:14.117Z,0
2016-11-24T02:16:14.133Z,0
2016-11-24T02:17:14.157Z,0
2016-11-24T02:18:29.095Z,0
2016-11-24T02:20:29.128Z,0
2016-11-24T02:21:14.238Z,0
2016-11-24T02:22:14.246Z,0
2016-11-24T02:23:29.181Z,0
2016-11-24T02:24:14.295Z,0
2016-11-24T02:25:14.607Z,0
2016-11-24T02:26:14.331Z,0
2016-11-24T02:27:29.266Z,0
2016-11-24T02:28:14.359Z,0
2016-11-24T02:29:14.375Z,0
2016-11-24T02:30:29.321Z,0
2016-11-24T02:31:14.422Z,0
2016-11-24T02:33:44.274Z,0
2016-11-24T02:35:29.409Z,0
2016-11-24T02:36:29.428Z,0
2016-11-24T02:37:14.536Z,0
2016-11-24T02:38:29.457Z,0
2016-11-24T02:39:29.479Z,0
2016-11-24T02:40:29.496Z,0
2016-11-24T02:41:14.606Z,0
2016-11-24T02:42:14.624Z,0
2016-11-24T02:43:14.650Z,0
2016-11-24T02:44:14.662Z,0
2016-11-24T02:45:14.990Z,0
2016-11-24T02:46:14.706Z,0
2016-11-24T02:47:14.777Z,0
2016-11-24T02:48:14.730Z,0
2016-11-24T02:49:14.752Z,0
2016-11-24T02:50:14.770Z,0
2016-11-24T02:51:29.704Z,0
2016-11-24T02:52:14.818Z,0
2016-11-24T02:53:14.876Z,0
2016-11-24T02:54:14.850Z,0
2016-11-24T02:55:29.776Z,0
2016-11-24T02:56:29.795Z,0
2016-11-24T02:57:14.915Z,0
2016-11-24T02:58:14.923Z,0
2016-11-24T02:59:14.937Z,0
2016-11-24T03:00:14.963Z,0
2016-11-24T03:01:14.976Z,0
2016-11-24T03:02:15.001Z,0
2016-11-24T03:03:15.018Z,0
2016-11-24T03:04:15.032Z,0
2016-11-24T03:05:29.959Z,0
2016-11-24T03:06:15.070Z,0
2016-11-24T03:07:15.081Z,0
2016-11-24T03:08:15.149Z,0
2016-11-24T03:09:30.037Z,0
2016-11-24T03:10:15.143Z,0
2016-11-24T03:11:15.165Z,0
2016-11-24T03:12:15.216Z,0
2016-11-24T03:13:30.109Z,0
2016-11-24T03:14:15.216Z,0
2016-11-24T03:15:30.144Z,0
2016-11-24T03:16:15.253Z,0
2016-11-24T03:17:15.270Z,0
2016-11-24T03:18:15.292Z,0
2016-11-24T03:19:15.309Z,0
2016-11-24T03:20:15.335Z,0
2016-11-24T03:21:30.251Z,0
2016-11-24T03:23:30.294Z,0
2016-11-24T03:24:15.407Z,0
2016-11-24T03:25:15.428Z,0
2016-11-24T03:26:15.441Z,0
2016-11-24T03:27:30.362Z,0
2016-11-24T03:28:15.475Z,0
2016-11-24T03:29:15.495Z,0
2016-11-24T03:30:15.512Z,0
2016-11-24T03:31:15.531Z,0
2016-11-24T03:32:15.554Z,0
2016-11-24T03:33:15.876Z,0
2016-11-24T03:34:15.591Z,0
2016-11-24T03:35:15.655Z,0
2016-11-24T03:36:15.628Z,0
2016-11-24T03:37:45.458Z,0
2016-11-24T03:38:15.964Z,0
2016-11-24T03:39:15.679Z,0
2016-11-24T03:40:15.692Z,0
2016-11-24T03:41:15.707Z,0
2016-11-24T03:42:15.736Z,0
2016-11-24T03:44:15.770Z,0
2016-11-24T03:45:15.789Z,0
2016-11-24T03:46:15.815Z,0
2016-11-24T03:47:15.825Z,0
2016-11-24T03:48:15.839Z,0
2016-11-24T03:49:15.903Z,0
2016-11-24T03:50:15.936Z,0
2016-11-24T03:52:15.911Z,0
2016-11-24T03:53:30.848Z,0
2016-11-24T03:54:15.955Z,0
2016-11-24T03:55:15.982Z,0
2016-11-24T03:56:15.992Z,0
2016-11-24T03:57:16.008Z,0
2016-11-24T03:58:30.938Z,0
2016-11-24T03:59:16.047Z,0
2016-11-24T04:00:16.062Z,0
2016-11-24T04:01:16.088Z,0
2016-11-24T04:02:16.105Z,0
2016-11-24T04:03:16.125Z,0
2016-11-24T04:04:16.154Z,0
2016-11-24T04:05:16.162Z,0
2016-11-24T04:06:16.176Z,0
2016-11-24T04:07:16.190Z,0
2016-11-24T04:08:31.126Z,0
2016-11-24T04:10:16.245Z,0
2016-11-24T04:11:16.324Z,0
2016-11-24T04:12:16.323Z,0
2016-11-24T04:14:31.236Z,0
2016-11-24T04:15:16.342Z,0
2016-11-24T04:16:16.372Z,0
2016-11-24T04:17:16.373Z,0
2016-11-24T04:18:16.405Z,0
2016-11-24T04:19:16.412Z,0
2016-11-24T04:20:16.427Z,0
2016-11-24T04:21:16.459Z,0
2016-11-24T04:22:16.472Z,0
2016-11-24T04:24:16.505Z,0
2016-11-24T04:25:16.529Z,0
2016-11-24T04:26:16.545Z,0
2016-11-24T04:27:16.573Z,0
2016-11-24T04:28:31.498Z,0
2016-11-24T04:29:31.507Z,0
2016-11-24T04:30:16.615Z,0
2016-11-24T04:31:16.634Z,0
2016-11-24T04:32:16.711Z,0
2016-11-24T04:33:16.673Z,0
2016-11-24T04:34:16.699Z,0
2016-11-24T04:35:16.710Z,0
2016-11-24T04:36:16.739Z,0
2016-11-24T04:37:16.748Z,0
2016-11-24T04:38:16.767Z,0
2016-11-24T04:39:16.793Z,0
2016-11-24T04:40:31.713Z,0
2016-11-24T04:41:16.821Z,0
2016-11-24T04:42:16.847Z,0
2016-11-24T04:43:16.852Z,0
2016-11-24T04:44:16.882Z,0
2016-11-24T04:45:16.904Z,0
2016-11-24T04:46:16.924Z,0
2016-11-24T04:47:16.933Z,0
2016-11-24T04:48:16.955Z,0
2016-11-24T04:49:16.968Z,0
2016-11-24T04:50:16.995Z,0
2016-11-24T04:51:17.012Z,0
2016-11-24T04:52:17.023Z,0
2016-11-24T04:53:17.047Z,0
2016-11-24T04:54:17.059Z,0
2016-11-24T04:55:17.078Z,0
2016-11-24T04:56:32.012Z,0
2016-11-24T04:57:32.033Z,0
2016-11-24T04:58:17.129Z,0
2016-11-24T04:59:17.150Z,0
2016-11-24T05:01:17.198Z,0
2016-11-24T05:02:17.262Z,0
2016-11-24T05:03:17.225Z,0
2016-11-24T05:04:17.551Z,0
2016-11-24T05:05:17.270Z,0
2016-11-24T05:07:17.308Z,0
2016-11-24T05:08:17.314Z,0
2016-11-24T05:09:32.242Z,0
2016-11-24T05:10:17.359Z,0
2016-11-24T05:11:17.379Z,0
2016-11-24T05:12:32.297Z,0
2016-11-24T05:13:17.415Z,0
2016-11-24T05:14:17.429Z,0
2016-11-24T05:15:17.474Z,0
2016-11-24T05:16:17.460Z,0
2016-11-24T05:17:17.485Z,0
2016-11-24T05:18:17.504Z,0
2016-11-24T05:19:17.517Z,0
2016-11-24T05:21:17.558Z,0
2016-11-24T05:22:17.578Z,0
2016-11-24T05:23:17.593Z,0
2016-11-24T05:24:17.643Z,0
2016-11-24T05:25:17.635Z,0
2016-11-24T05:26:17.650Z,0
2016-11-24T05:27:17.668Z,0
2016-11-24T05:28:47.506Z,0
2016-11-24T05:29:17.703Z,0
2016-11-24T05:30:17.720Z,0
2016-11-24T05:31:17.740Z,0
2016-11-24T05:32:17.753Z,0
2016-11-24T05:33:32.692Z,0
2016-11-24T05:34:17.797Z,0
2016-11-24T05:35:32.724Z,0
2016-11-24T05:36:17.834Z,0
2016-11-24T05:37:32.762Z,0
2016-11-24T05:38:17.877Z,0
2016-11-24T05:39:17.890Z,0
2016-11-24T05:40:17.917Z,0
2016-11-24T05:41:17.920Z,0
2016-11-24T05:42:17.939Z,0
2016-11-24T05:43:32.912Z,0
2016-11-24T05:44:17.977Z,0
2016-11-24T05:45:18.000Z,0
2016-11-24T05:46:18.015Z,0
2016-11-24T05:47:18.033Z,0
2016-11-24T05:48:18.055Z,0
2016-11-24T05:49:18.085Z,0
2016-11-24T05:51:18.112Z,0
2016-11-24T05:52:18.140Z,0
2016-11-24T05:53:18.174Z,0
2016-11-24T05:54:18.170Z,0
2016-11-24T05:55:18.195Z,0
2016-11-24T05:56:18.241Z,0
2016-11-24T05:57:33.131Z,0
2016-11-24T05:58:18.245Z,0
2016-11-24T05:59:18.262Z,0
2016-11-24T06:00:33.191Z,0
2016-11-24T06:02:18.316Z,0
2016-11-24T06:03:18.333Z,0
2016-11-24T06:04:33.262Z,0
2016-11-24T06:05:18.376Z,0
2016-11-24T06:06:18.395Z,0
2016-11-24T06:07:18.415Z,0
2016-11-24T06:08:33.338Z,0
2016-11-24T06:09:18.451Z,0
2016-11-24T06:10:18.472Z,0
2016-11-24T06:11:18.530Z,0
2016-11-24T06:12:18.502Z,0
2016-11-24T06:13:18.609Z,0
2016-11-24T06:14:18.546Z,0
2016-11-24T06:15:33.509Z,4
2016-11-24T06:16:18.577Z,4
2016-11-24T06:17:18.592Z,4
2016-11-24T06:18:18.613Z,4
2016-11-24T06:19:33.548Z,0
2016-11-24T06:20:18.653Z,4
2016-11-24T06:21:18.683Z,4
2016-11-24T06:22:18.699Z,8
2016-11-24T06:23:18.720Z,8
2016-11-24T06:24:18.728Z,8
2016-11-24T06:25:18.742Z,12
2016-11-24T06:26:18.775Z,12
2016-11-24T06:27:18.783Z,16
2016-11-24T06:28:18.809Z,16
2016-11-24T06:29:18.832Z,24
2016-11-24T06:30:18.836Z,24
2016-11-24T06:31:33.768Z,36
2016-11-24T06:32:18.882Z,40
2016-11-24T06:33:18.895Z,40
2016-11-24T06:34:18.918Z,48
2016-11-24T06:35:33.850Z,52
2016-11-24T06:36:18.944Z,56
2016-11-24T06:37:18.980Z,72
2016-11-24T06:38:18.988Z,84
2016-11-24T06:39:18.999Z,92
2016-11-24T06:41:19.047Z,100
2016-11-24T06:42:19.069Z,108
2016-11-24T06:43:19.087Z,120
2016-11-24T06:44:19.100Z,116
2016-11-24T06:45:19.128Z,128
2016-11-24T06:46:19.139Z,132
2016-11-24T06:47:48.984Z,156
2016-11-24T06:48:19.174Z,156
2016-11-24T06:49:19.196Z,164
2016-11-24T06:50:34.131Z,168
2016-11-24T06:51:19.236Z,172
2016-11-24T06:52:19.248Z,216
2016-11-24T06:53:19.281Z,204
2016-11-24T06:54:19.292Z,244
2016-11-24T06:55:19.305Z,284
2016-11-24T06:56:19.323Z,264
2016-11-24T06:58:19.361Z,384
2016-11-24T06:59:19.380Z,392
2016-11-24T07:00:19.398Z,428
2016-11-24T07:01:19.423Z,420
2016-11-24T07:02:19.444Z,424
2016-11-24T07:03:34.365Z,460
2016-11-24T07:04:34.386Z,472
2016-11-24T07:05:19.827Z,464
2016-11-24T07:06:34.427Z,516
2016-11-24T07:07:19.533Z,512
2016-11-24T07:08:34.461Z,580
2016-11-24T07:09:19.570Z,592
2016-11-24T07:11:19.611Z,680
2016-11-24T07:12:34.533Z,840
2016-11-24T07:13:19.642Z,988
2016-11-24T07:14:19.665Z,996
2016-11-24T07:15:34.586Z,1192
2016-11-24T07:16:34.602Z,1288
2016-11-24T07:17:19.709Z,1344
2016-11-24T07:18:34.640Z,1444
2016-11-24T07:19:19.756Z,1628
2016-11-24T07:20:34.687Z,1696
2016-11-24T07:21:19.944Z,1792
2016-11-24T07:22:19.810Z,1868
2016-11-24T07:23:19.835Z,1952
2016-11-24T07:24:34.750Z,2048
2016-11-24T07:25:19.870Z,2100
2016-11-24T07:26:19.889Z,2136
2016-11-24T07:27:20.003Z,2212
2016-11-24T07:28:19.926Z,2288
2016-11-24T07:29:34.846Z,2388
2016-11-24T07:30:20.008Z,2448
2016-11-24T07:31:19.976Z,2516
2016-11-24T07:32:20.002Z,2584
2016-11-24T07:33:34.933Z,2656
2016-11-24T07:34:20.037Z,2716
2016-11-24T07:36:20.071Z,2840
2016-11-24T07:37:20.088Z,2876
2016-11-24T07:38:20.101Z,2948
2016-11-24T07:39:20.122Z,3020
2016-11-24T07:41:20.164Z,3120
2016-11-24T07:42:20.188Z,3188
2016-11-24T07:43:20.204Z,3260
2016-11-24T07:44:20.216Z,3324
2016-11-24T07:45:20.236Z,3368
2016-11-24T07:46:20.260Z,3460
2016-11-24T07:47:20.604Z,3516
2016-11-24T07:48:20.298Z,3544
2016-11-24T07:49:20.316Z,3548
2016-11-24T07:50:35.246Z,3580
2016-11-24T07:51:35.264Z,3616
2016-11-24T07:52:20.374Z,3656
2016-11-24T07:54:20.409Z,3756
2016-11-24T07:55:20.429Z,3808
2016-11-24T07:56:20.531Z,3892
2016-11-24T07:57:35.377Z,3980
2016-11-24T07:58:20.491Z,4016
2016-11-24T07:59:20.499Z,4016
2016-11-24T08:01:20.550Z,3936
2016-11-24T08:02:20.562Z,3980
2016-11-24T08:03:20.578Z,4288
2016-11-24T08:04:20.605Z,4508
2016-11-24T08:05:20.621Z,4508
2016-11-24T08:06:35.859Z,4860
2016-11-24T08:07:20.711Z,5344
2016-11-24T08:08:35.592Z,6100
2016-11-24T08:09:20.701Z,6296
2016-11-24T08:10:20.765Z,6340
2016-11-24T08:11:20.731Z,6400
2016-11-24T08:12:20.758Z,6208
2016-11-24T08:13:35.679Z,5608
2016-11-24T08:14:20.785Z,5076
2016-11-24T08:15:20.867Z,4916
2016-11-24T08:16:20.834Z,5440
2016-11-24T08:17:20.858Z,5976
2016-11-24T08:18:20.864Z,5956
2016-11-24T08:19:20.888Z,6016
2016-11-24T08:20:20.904Z,6092
2016-11-24T08:21:20.921Z,6336
2016-11-24T08:22:35.858Z,6420
2016-11-24T08:23:20.985Z,6288
2016-11-24T08:24:20.984Z,6424
2016-11-24T08:25:21.006Z,6424
2016-11-24T08:26:21.031Z,6444
2016-11-24T08:27:21.046Z,6524
2016-11-24T08:28:21.062Z,6696
2016-11-24T08:29:21.084Z,7052
2016-11-24T08:30:21.107Z,6980
2016-11-24T08:31:21.175Z,7112
2016-11-24T08:32:21.140Z,7340
2016-11-24T08:33:21.160Z,6684
2016-11-24T08:34:21.180Z,7296
2016-11-24T08:35:36.107Z,7572
2016-11-24T08:36:21.222Z,7912
2016-11-24T08:37:21.240Z,7436
2016-11-24T08:38:51.079Z,7500
2016-11-24T08:39:21.275Z,6920
2016-11-24T08:40:21.329Z,7592
2016-11-24T08:41:21.340Z,7860
2016-11-24T08:42:21.342Z,7792
2016-11-24T08:43:21.356Z,7712
2016-11-24T08:44:21.385Z,7668
2016-11-24T08:45:21.402Z,7572
2016-11-24T08:46:21.411Z,7576
2016-11-24T08:47:21.439Z,6820
2016-11-24T08:48:21.449Z,7556
2016-11-24T08:49:21.478Z,6880
2016-11-24T08:50:21.496Z,6952
2016-11-24T08:51:21.527Z,6708
2016-11-24T08:52:21.538Z,6668
2016-11-24T08:53:36.474Z,6068
2016-11-24T08:54:21.574Z,6356
2016-11-24T08:55:21.596Z,6336
2016-11-24T08:56:21.612Z,6316
2016-11-24T08:57:21.689Z,6552
2016-11-24T08:58:36.571Z,6908
2016-11-24T08:59:21.679Z,7020
2016-11-24T09:00:21.846Z,7152
2016-11-24T09:01:21.710Z,7332
2016-11-24T09:02:36.695Z,7472
2016-11-24T09:03:21.759Z,7492
2016-11-24T09:04:21.780Z,7468
2016-11-24T09:05:21.794Z,7408
2016-11-24T09:06:21.818Z,7308
2016-11-24T09:07:21.837Z,7320
2016-11-24T09:08:21.856Z,7484
2016-11-24T09:09:21.872Z,7464
2016-11-24T09:11:36.828Z,7376
2016-11-24T09:12:21.943Z,6676
2016-11-24T09:13:21.955Z,6888
2016-11-24T09:14:21.980Z,6848
2016-11-24T09:15:21.999Z,6916
2016-11-24T09:16:22.012Z,7560
2016-11-24T09:17:22.031Z,7392
2016-11-24T09:18:22.058Z,7600
2016-11-24T09:19:36.983Z,7552
2016-11-24T09:20:22.099Z,7564
2016-11-24T09:21:22.110Z,7304
2016-11-24T09:22:22.132Z,7372
2016-11-24T09:23:22.150Z,7224
2016-11-24T09:24:22.172Z,7284
2016-11-24T09:25:37.106Z,7416
2016-11-24T09:26:22.243Z,7168
2016-11-24T09:27:22.230Z,7172
2016-11-24T09:29:22.277Z,7184
2016-11-24T09:30:22.290Z,7120
2016-11-24T09:31:37.224Z,7132
2016-11-24T09:32:22.326Z,7092
2016-11-24T09:33:22.352Z,6852
2016-11-24T09:34:22.381Z,7088
2016-11-24T09:35:22.390Z,6924
2016-11-24T09:36:22.417Z,6840
2016-11-24T09:37:22.744Z,6916
2016-11-24T09:38:22.459Z,7028
2016-11-24T09:39:22.476Z,6828
2016-11-24T09:40:22.494Z,6708
2016-11-24T09:41:37.418Z,6728
2016-11-24T09:42:22.537Z,6660
2016-11-24T09:43:22.561Z,6680
2016-11-24T09:44:22.565Z,6680
2016-11-24T09:45:23.053Z,6648
2016-11-24T09:46:22.608Z,6616
2016-11-24T09:47:22.639Z,6504
2016-11-24T09:48:22.653Z,6460
2016-11-24T09:49:37.583Z,6372
2016-11-24T09:50:22.694Z,6336
2016-11-24T09:51:22.711Z,6144
2016-11-24T09:52:22.729Z,5940
2016-11-24T09:53:22.756Z,5748
2016-11-24T09:54:37.681Z,5384
2016-11-24T09:55:22.792Z,5360
2016-11-24T09:56:22.814Z,5200
2016-11-24T09:57:37.750Z,5192
2016-11-24T09:58:22.853Z,5076
2016-11-24T09:59:22.874Z,4984
2016-11-24T10:00:22.890Z,4868
2016-11-24T10:01:22.918Z,4836
2016-11-24T10:02:22.933Z,4740
2016-11-24T10:03:37.867Z,4536
2016-11-24T10:04:37.884Z,4452
2016-11-24T10:05:23.000Z,4440
2016-11-24T10:06:23.010Z,4336
2016-11-24T10:07:23.040Z,4268
2016-11-24T10:08:23.063Z,4220
2016-11-24T10:09:23.074Z,4108
2016-11-24T10:10:23.097Z,4112
2016-11-24T10:11:23.113Z,4040
2016-11-24T10:12:38.041Z,4076
2016-11-24T10:14:38.085Z,3992
2016-11-24T10:15:38.106Z,3960
2016-11-24T10:16:23.527Z,3932
2016-11-24T10:17:38.151Z,3856
2016-11-24T10:18:23.263Z,3796
2016-11-24T10:20:23.294Z,3776
2016-11-24T10:21:23.311Z,3736
2016-11-24T10:22:23.342Z,3720
2016-11-24T10:23:23.354Z,3724
2016-11-24T10:24:23.377Z,3740
2016-11-24T10:25:23.403Z,3712
2016-11-24T10:26:23.416Z,3684
2016-11-24T10:27:23.432Z,3676
2016-11-24T10:28:38.370Z,3652
2016-11-24T10:29:23.469Z,3632
2016-11-24T10:30:23.486Z,3620
2016-11-24T10:31:38.428Z,3648
2016-11-24T10:32:23.532Z,3664
2016-11-24T10:33:23.553Z,3696
2016-11-24T10:34:23.572Z,3700
2016-11-24T10:35:23.596Z,3732
2016-11-24T10:36:38.528Z,3740
2016-11-24T10:37:23.701Z,3692
2016-11-24T10:38:23.657Z,3832
2016-11-24T10:39:23.674Z,3816
2016-11-24T10:40:23.689Z,3760
2016-11-24T10:41:23.719Z,3664
2016-11-24T10:42:23.728Z,3632
2016-11-24T10:43:23.755Z,3620
2016-11-24T10:44:23.770Z,3644
2016-11-24T10:45:23.789Z,3628
2016-11-24T10:46:23.807Z,3576
2016-11-24T10:47:23.839Z,3624
2016-11-24T10:48:23.854Z,3772
2016-11-24T10:49:23.870Z,3604
2016-11-24T10:50:23.887Z,3680
2016-11-24T10:51:38.819Z,3860
2016-11-24T10:52:23.934Z,3812
2016-11-24T10:53:23.947Z,3700
2016-11-24T10:54:23.991Z,3592
2016-11-24T10:55:23.981Z,3692
2016-11-24T10:56:24.007Z,3892
2016-11-24T10:57:24.027Z,3900
2016-11-24T10:58:24.051Z,3848
2016-11-24T10:59:24.065Z,3688
2016-11-24T11:00:39.003Z,3668
2016-11-24T11:01:24.308Z,3808
2016-11-24T11:02:24.137Z,3900
2016-11-24T11:03:24.149Z,3888
2016-11-24T11:04:24.167Z,3632
2016-11-24T11:05:24.184Z,3988
2016-11-24T11:06:24.206Z,3924
2016-11-24T11:07:24.221Z,3816
2016-11-24T11:08:24.241Z,4028
2016-11-24T11:09:39.175Z,4292
2016-11-24T11:10:24.296Z,4072
2016-11-24T11:11:24.308Z,3852
2016-11-24T11:12:24.374Z,3884
2016-11-24T11:13:24.350Z,4096
2016-11-24T11:14:24.363Z,3980
2016-11-24T11:16:39.321Z,3796
2016-11-24T11:17:24.469Z,3816
2016-11-24T11:18:39.362Z,3896
2016-11-24T11:19:39.397Z,4016
2016-11-24T11:20:24.485Z,4012
2016-11-24T11:21:39.417Z,4088
2016-11-24T11:22:24.523Z,4088
2016-11-24T11:23:24.553Z,4056
2016-11-24T11:24:24.617Z,4072
2016-11-24T11:25:24.594Z,3932
2016-11-24T11:26:24.607Z,4232
2016-11-24T11:27:24.659Z,4272
2016-11-24T11:28:24.643Z,4336
2016-11-24T11:29:24.669Z,4404
2016-11-24T11:30:24.680Z,4452
2016-11-24T11:31:24.703Z,4456
2016-11-24T11:32:39.633Z,4508
2016-11-24T11:33:24.743Z,4520
2016-11-24T11:34:24.812Z,4500
2016-11-24T11:35:24.790Z,4456
2016-11-24T11:36:24.806Z,4484
2016-11-24T11:37:24.825Z,4492
2016-11-24T11:38:24.844Z,4496
2016-11-24T11:39:24.864Z,4548
2016-11-24T11:40:24.880Z,4556
2016-11-24T11:42:24.927Z,4504
2016-11-24T11:43:24.944Z,4452
2016-11-24T11:44:25.296Z,4368
2016-11-24T11:45:24.984Z,4296
2016-11-24T11:46:25.009Z,4472
2016-11-24T11:47:25.025Z,4492
2016-11-24T11:48:39.955Z,4364
2016-11-24T11:49:25.066Z,4352
2016-11-24T11:50:25.388Z,4224
2016-11-24T11:52:25.124Z,4284
2016-11-24T11:53:25.147Z,4244
2016-11-24T11:54:25.164Z,4236
2016-11-24T11:55:25.238Z,4272
2016-11-24T11:56:25.233Z,4308
2016-11-24T11:57:25.228Z,4308
2016-11-24T11:58:25.246Z,4316
2016-11-24T11:59:40.207Z,4328
2016-11-24T12:00:25.635Z,4332
2016-11-24T12:01:25.309Z,4348
2016-11-24T12:02:25.330Z,4352
2016-11-24T12:03:40.268Z,4360
2016-11-24T12:04:25.366Z,4380
2016-11-24T12:05:25.387Z,4396
2016-11-24T12:06:40.324Z,4416
2016-11-24T12:07:25.428Z,4432
2016-11-24T12:08:25.456Z,4428
2016-11-24T12:09:40.375Z,4392
2016-11-24T12:10:25.498Z,4360
2016-11-24T12:11:25.512Z,4364
2016-11-24T12:12:25.529Z,4364
2016-11-24T12:13:25.862Z,4328
2016-11-24T12:14:25.573Z,4280
2016-11-24T12:15:25.939Z,4232
2016-11-24T12:16:25.611Z,4184
2016-11-24T12:17:25.634Z,4156
2016-11-24T12:19:25.669Z,4088
2016-11-24T12:20:25.693Z,4076
2016-11-24T12:21:25.708Z,4040
2016-11-24T12:22:26.039Z,4000
2016-11-24T12:23:25.742Z,3960
2016-11-24T12:24:25.773Z,3916
2016-11-24T12:25:25.838Z,3864
2016-11-24T12:26:40.723Z,3816
2016-11-24T12:27:25.834Z,3808
2016-11-24T12:28:25.850Z,3792
2016-11-24T12:29:40.780Z,3736
2016-11-24T12:30:25.885Z,3704
2016-11-24T12:31:25.912Z,3668
2016-11-24T12:32:25.933Z,3644
2016-11-24T12:33:25.958Z,3616
2016-11-24T12:34:25.971Z,3600
2016-11-24T12:35:40.907Z,3568
2016-11-24T12:36:26.013Z,3548
2016-11-24T12:37:26.040Z,3520
2016-11-24T12:38:41.001Z,3484
2016-11-24T12:39:26.076Z,3460
2016-11-24T12:40:26.100Z,3420
2016-11-24T12:41:41.019Z,3368
2016-11-24T12:42:26.137Z,3336
2016-11-24T12:43:26.164Z,3288
2016-11-24T12:44:26.169Z,3248
2016-11-24T12:45:26.194Z,3220
2016-11-24T12:46:26.530Z,3200
2016-11-24T12:47:26.229Z,3180
2016-11-24T12:48:26.260Z,3168
2016-11-24T12:49:26.276Z,3164
2016-11-24T12:51:41.224Z,3164
2016-11-24T12:52:26.339Z,3172
2016-11-24T12:53:26.360Z,3180
2016-11-24T12:54:41.285Z,3172
2016-11-24T12:55:26.391Z,3164
2016-11-24T12:56:26.411Z,3160
2016-11-24T12:57:26.431Z,3164
2016-11-24T12:58:26.487Z,3164
2016-11-24T12:59:26.472Z,3164
2016-11-24T13:00:26.490Z,3180
2016-11-24T13:01:26.513Z,3188
2016-11-24T13:02:26.530Z,3196
2016-11-24T13:03:26.555Z,3192
2016-11-24T13:04:26.572Z,3188
2016-11-24T13:05:26.595Z,3192
2016-11-24T13:06:26.622Z,3180
2016-11-24T13:07:41.545Z,3180
2016-11-24T13:08:41.565Z,3176
2016-11-24T13:09:26.675Z,3156
2016-11-24T13:10:27.002Z,3128
2016-11-24T13:11:26.709Z,3104
2016-11-24T13:12:26.731Z,3068
2016-11-24T13:13:26.748Z,3052
2016-11-24T13:14:26.771Z,3012
2016-11-24T13:15:26.798Z,2988
2016-11-24T13:16:41.723Z,2912
2016-11-24T13:17:26.835Z,2880
2016-11-24T13:18:26.845Z,2840
2016-11-24T13:19:26.879Z,2804
2016-11-24T13:20:41.798Z,2748
2016-11-24T13:21:26.913Z,2716
2016-11-24T13:22:26.932Z,2696
2016-11-24T13:23:41.870Z,2684
2016-11-24T13:24:26.983Z,2660
2016-11-24T13:25:26.988Z,2636
2016-11-24T13:26:27.017Z,2628
2016-11-24T13:27:27.035Z,2620
2016-11-24T13:28:27.058Z,2596
2016-11-24T13:29:41.986Z,2564
2016-11-24T13:30:27.098Z,2552
2016-11-24T13:32:27.143Z,2504
2016-11-24T13:33:42.064Z,2468
2016-11-24T13:34:27.169Z,2460
2016-11-24T13:35:27.193Z,2428
2016-11-24T13:37:27.287Z,2384
2016-11-24T13:38:42.165Z,2360
2016-11-24T13:39:27.278Z,2340
2016-11-24T13:40:42.207Z,2304
2016-11-24T13:41:27.313Z,2292
2016-11-24T13:43:27.352Z,2268
2016-11-24T13:44:27.383Z,2284
2016-11-24T13:45:27.388Z,2224
2016-11-24T13:46:27.418Z,2268
2016-11-24T13:47:27.427Z,2240
2016-11-24T13:48:27.451Z,2212
2016-11-24T13:49:27.472Z,2180
2016-11-24T13:50:27.502Z,2168
2016-11-24T13:51:27.511Z,2156
2016-11-24T13:52:27.588Z,2124
2016-11-24T13:53:27.552Z,2056
2016-11-24T13:54:27.572Z,2056
2016-11-24T13:55:27.595Z,1976
2016-11-24T13:56:42.528Z,1992
2016-11-24T13:57:27.940Z,1932
2016-11-24T13:59:27.671Z,1860
2016-11-24T14:00:27.689Z,1816
2016-11-24T14:02:42.643Z,1728
2016-11-24T14:03:27.757Z,1708
2016-11-24T14:04:27.775Z,1676
2016-11-24T14:05:27.796Z,1648
2016-11-24T14:06:27.869Z,1616
2016-11-24T14:07:27.831Z,1584
2016-11-24T14:08:42.814Z,1548
2016-11-24T14:09:27.925Z,1528
2016-11-24T14:10:42.802Z,1492
2016-11-24T14:11:27.917Z,1468
2016-11-24T14:12:27.934Z,1436
2016-11-24T14:14:27.975Z,1372
2016-11-24T14:16:28.109Z,1304
2016-11-24T14:17:28.027Z,1272
2016-11-24T14:18:28.049Z,1244
2016-11-24T14:19:28.069Z,1208
2016-11-24T14:20:28.091Z,1180
2016-11-24T14:21:28.114Z,1152
2016-11-24T14:22:28.125Z,1124
2016-11-24T14:23:28.158Z,1092
2016-11-24T14:24:28.157Z,1064
2016-11-24T14:25:28.189Z,1032
2016-11-24T14:26:43.117Z,984
2016-11-24T14:27:43.453Z,952
2016-11-24T14:28:28.248Z,928
2016-11-24T14:29:28.268Z,900
2016-11-24T14:31:28.307Z,844
2016-11-24T14:32:28.325Z,820
2016-11-24T14:33:28.334Z,792
2016-11-24T14:35:43.291Z,736
2016-11-24T14:36:28.394Z,716
2016-11-24T14:37:28.411Z,696
2016-11-24T14:38:28.439Z,668
2016-11-24T14:39:28.457Z,644
2016-11-24T14:40:28.480Z,620